createdAt,value
2018-09-26T00:00:35.723Z,101845.11
2018-09-26T00:03:44.185Z,101825.30
2018-09-26T00:06:48.608Z,101820.08
2018-09-26T00:09:53.074Z,101822.85
2018-09-26T00:12:57.536Z,101817.80
2018-09-26T00:16:02.004Z,101820.67
2018-09-26T00:19:06.555Z,101817.41
2018-09-26T00:22:10.988Z,101813.45
2018-09-26T00:25:15.455Z,101801.27
2018-09-26T00:28:19.914Z,101799.71
2018-09-26T00:31:24.352Z,101804.62
2018-09-26T00:34:28.734Z,101801.83
2018-09-26T00:37:33.129Z,101804.20
2018-09-26T00:40:37.618Z,101818.06
2018-09-26T00:43:42.049Z,101828.94
2018-09-26T00:46:46.504Z,101823.77
2018-09-26T00:49:50.990Z,101824.34
2018-09-26T00:52:55.385Z,101823.23
2018-09-26T00:55:59.961Z,101829.71
2018-09-26T00:59:04.485Z,101825.48
2018-09-26T01:02:08.854Z,101828.50
2018-09-26T01:05:13.393Z,101822.20
2018-09-26T01:08:17.744Z,101818.58
2018-09-26T01:11:22.314Z,101815.42
2018-09-26T01:14:26.762Z,101812.73
2018-09-26T01:17:31.158Z,101806.41
2018-09-26T01:20:35.951Z,101803.13
2018-09-26T01:23:40.389Z,101803.94
2018-09-26T01:26:44.806Z,101807.80
2018-09-26T01:29:49.405Z,101800.34
2018-09-26T01:32:53.905Z,101810.78
2018-09-26T01:35:58.454Z,101818.34
2018-09-26T01:39:03.034Z,101819.65
2018-09-26T01:42:07.476Z,101821.83
2018-09-26T01:45:12.135Z,101814.32
2018-09-26T01:48:16.511Z,101811.89
2018-09-26T01:51:20.928Z,101798.66
2018-09-26T01:54:25.506Z,101789.83
2018-09-26T01:57:29.974Z,101790.08
2018-09-26T02:00:34.528Z,101788.00
2018-09-26T02:03:39.061Z,101789.65
2018-09-26T02:06:43.508Z,101793.80
2018-09-26T02:09:47.957Z,101788.34
2018-09-26T02:12:52.444Z,101785.65
2018-09-26T02:15:56.891Z,101785.47
2018-09-26T02:19:01.462Z,101778.54
2018-09-26T02:22:05.953Z,101773.08
2018-09-26T02:25:10.491Z,101766.98
2018-09-26T02:28:14.960Z,101768.11
2018-09-26T02:31:19.359Z,101768.77
2018-09-26T02:34:23.849Z,101761.77
2018-09-26T02:37:28.262Z,101760.67
2018-09-26T02:40:32.733Z,101760.20
2018-09-26T02:43:37.240Z,101766.79
2018-09-26T02:46:41.769Z,101759.52
2018-09-26T02:49:46.256Z,101758.47
2018-09-26T02:52:50.711Z,101749.17
2018-09-26T02:55:55.311Z,101744.09
2018-09-26T02:58:59.866Z,101729.09
2018-09-26T03:02:04.453Z,101718.44
2018-09-26T03:05:08.997Z,101722.43
2018-09-26T03:08:13.520Z,101718.53
2018-09-26T03:11:18.172Z,101713.45
2018-09-26T03:14:22.643Z,101725.45
2018-09-26T03:17:27.238Z,101716.12
2018-09-26T03:20:31.633Z,101717.55
2018-09-26T03:23:36.081Z,101712.47
2018-09-26T03:26:40.604Z,101709.70
2018-09-26T03:29:45.031Z,101721.44
2018-09-26T03:32:49.584Z,101716.97
2018-09-26T03:35:53.979Z,101708.23
2018-09-26T03:38:58.389Z,101707.29
2018-09-26T03:42:03.008Z,101705.58
2018-09-26T03:45:08.245Z,101710.05
2018-09-26T03:48:12.751Z,101721.55
2018-09-26T03:51:17.252Z,101718.77
2018-09-26T03:54:21.810Z,101724.59
2018-09-26T03:57:26.324Z,101728.41
2018-09-26T04:00:30.771Z,101728.34
2018-09-26T04:03:35.178Z,101723.59
2018-09-26T04:06:39.794Z,101720.09
2018-09-26T04:09:44.252Z,101724.78
2018-09-26T04:12:49.029Z,101739.67
2018-09-26T04:15:55.273Z,101727.97
2018-09-26T04:18:59.720Z,101724.95
2018-09-26T04:22:04.345Z,101723.51
2018-09-26T04:25:08.835Z,101721.11
2018-09-26T04:28:13.342Z,101721.55
2018-09-26T04:31:17.945Z,101716.70
2018-09-26T04:34:22.438Z,101712.11
2018-09-26T04:37:26.880Z,101712.02
2018-09-26T04:40:31.947Z,101707.53
2018-09-26T04:43:36.426Z,101713.71
2018-09-26T04:46:40.875Z,101722.88
2018-09-26T04:49:45.398Z,101727.35
2018-09-26T04:52:49.856Z,101725.63
2018-09-26T04:55:54.302Z,101726.33
2018-09-26T04:58:58.798Z,101721.27
2018-09-26T05:02:03.521Z,101719.34
2018-09-26T05:05:07.953Z,101717.94
2018-09-26T05:08:12.415Z,101729.42
2018-09-26T05:11:16.902Z,101735.48
2018-09-26T05:14:21.409Z,101733.42
2018-09-26T05:17:25.792Z,101729.78
2018-09-26T05:20:30.200Z,101730.16
2018-09-26T05:23:34.676Z,101729.44
2018-09-26T05:26:39.163Z,101730.78
2018-09-26T05:29:43.637Z,101732.86
2018-09-26T05:32:48.115Z,101734.09
2018-09-26T05:35:52.559Z,101737.21
2018-09-26T05:38:56.973Z,101729.84
2018-09-26T05:42:01.516Z,101728.37
2018-09-26T05:45:06.065Z,101729.47
2018-09-26T05:48:10.552Z,101722.45
2018-09-26T05:51:15.134Z,101719.54
2018-09-26T05:54:19.823Z,101715.89
2018-09-26T05:57:24.232Z,101722.09
2018-09-26T06:00:28.798Z,101719.78
2018-09-26T06:03:33.194Z,101718.64
2018-09-26T06:06:37.725Z,101716.01
2018-09-26T06:09:42.264Z,101708.73
2018-09-26T06:12:46.693Z,101712.84
2018-09-26T06:15:51.275Z,101726.64
2018-09-26T06:18:55.754Z,101729.09
2018-09-26T06:22:00.191Z,101723.69
2018-09-26T06:25:04.674Z,101723.97
2018-09-26T06:28:09.128Z,101719.08
2018-09-26T06:31:13.591Z,101715.80
2018-09-26T06:34:18.093Z,101719.43
2018-09-26T06:37:22.791Z,101702.79
2018-09-26T06:40:27.478Z,101718.83
2018-09-26T06:43:31.915Z,101720.22
2018-09-26T06:46:36.415Z,101715.02
2018-09-26T06:49:40.874Z,101728.80
2018-09-26T06:52:45.329Z,101713.22
2018-09-26T06:55:49.962Z,101718.37
2018-09-26T06:58:54.417Z,101718.89
2018-09-26T07:01:59.032Z,101730.16
2018-09-26T07:05:03.531Z,101729.41
2018-09-26T07:08:07.941Z,101727.98
2018-09-26T07:11:12.331Z,101736.98
2018-09-26T07:14:16.739Z,101737.04
2018-09-26T07:17:21.304Z,101730.42
2018-09-26T07:20:25.785Z,101721.70
2018-09-26T07:23:30.177Z,101703.44
2018-09-26T07:26:34.705Z,101691.06
2018-09-26T07:29:39.227Z,101690.34
2018-09-26T07:32:43.645Z,101695.05
2018-09-26T07:35:48.108Z,101694.84
2018-09-26T07:38:52.517Z,101704.58
2018-09-26T07:41:57.071Z,101702.36
2018-09-26T07:45:01.512Z,101706.55
2018-09-26T07:48:06.472Z,101708.02
2018-09-26T07:51:11.111Z,101702.40
2018-09-26T07:54:15.577Z,101702.61
2018-09-26T07:57:20.045Z,101703.89
2018-09-26T08:00:24.649Z,101708.36
2018-09-26T08:03:29.271Z,101704.28
2018-09-26T08:06:33.718Z,101716.33
2018-09-26T08:09:38.234Z,101716.67
2018-09-26T08:12:42.801Z,101716.05
2018-09-26T08:15:47.264Z,101709.09
2018-09-26T08:18:51.739Z,101699.38
2018-09-26T08:21:56.300Z,101689.58
2018-09-26T08:25:00.897Z,101688.41
2018-09-26T08:28:05.399Z,101680.36
2018-09-26T08:31:09.876Z,101683.20
2018-09-26T08:34:14.371Z,101683.72
2018-09-26T08:37:18.855Z,101686.16
2018-09-26T08:40:23.724Z,101696.43
2018-09-26T08:43:28.371Z,101700.11
2018-09-26T08:46:32.905Z,101695.05
2018-09-26T08:49:37.426Z,101693.05
2018-09-26T08:52:41.861Z,101695.87
2018-09-26T08:55:46.351Z,101678.41
2018-09-26T08:58:50.823Z,101670.31
2018-09-26T09:01:55.290Z,101673.69
2018-09-26T09:04:59.809Z,101668.48
2018-09-26T09:08:04.338Z,101667.26
2018-09-26T09:11:09.092Z,101664.44
2018-09-26T09:14:13.580Z,101656.64
2018-09-26T09:17:18.018Z,101659.28
2018-09-26T09:20:22.516Z,101670.75
2018-09-26T09:23:26.906Z,101657.54
2018-09-26T09:26:31.430Z,101664.19
2018-09-26T09:29:35.932Z,101663.53
2018-09-26T09:32:40.525Z,101663.90
2018-09-26T09:35:44.967Z,101651.20
2018-09-26T09:38:49.527Z,101634.84
2018-09-26T09:41:54.004Z,101638.89
2018-09-26T09:44:58.453Z,101630.56
2018-09-26T09:48:02.889Z,101629.70
2018-09-26T09:51:07.423Z,101628.64
2018-09-26T09:57:22.533Z,101627.05
2018-09-26T10:00:32.093Z,101625.58
2018-09-26T10:03:36.512Z,101618.60
2018-09-26T10:06:40.961Z,101612.49
2018-09-26T10:09:45.396Z,101611.41
2018-09-26T10:12:49.945Z,101599.93
2018-09-26T10:15:59.223Z,101591.74
2018-09-26T10:19:03.805Z,101593.27
2018-09-26T10:22:08.404Z,101586.72
2018-09-26T10:25:12.915Z,101587.55
2018-09-26T10:28:17.444Z,101581.31
2018-09-26T10:31:21.964Z,101582.21
2018-09-26T10:34:26.576Z,101571.41
2018-09-26T10:37:31.069Z,101581.62
2018-09-26T10:40:36.121Z,101579.13
2018-09-26T10:43:40.561Z,101569.03
2018-09-26T10:46:45.242Z,101571.41
2018-09-26T10:49:50.855Z,101567.92
2018-09-26T10:52:55.299Z,101570.71
2018-09-26T10:55:59.870Z,101564.77
2018-09-26T10:59:04.370Z,101564.24
2018-09-26T11:02:08.942Z,101559.42
2018-09-26T11:05:14.252Z,101549.59
2018-09-26T11:08:18.828Z,101554.41
2018-09-26T11:11:23.312Z,101549.55
2018-09-26T11:14:27.877Z,101554.43
2018-09-26T11:17:32.334Z,101551.51
2018-09-26T11:20:36.861Z,101540.88
2018-09-26T11:23:41.289Z,101529.33
2018-09-26T11:26:45.860Z,101527.72
2018-09-26T11:29:50.340Z,101523.12
2018-09-26T11:32:54.948Z,101521.97
2018-09-26T11:35:59.382Z,101527.92
2018-09-26T11:39:05.166Z,101525.86
2018-09-26T11:42:20.017Z,101512.34
2018-09-26T11:45:24.633Z,101505.27
2018-09-26T11:49:00.045Z,101509.00
2018-09-26T11:52:04.767Z,101506.30
2018-09-26T11:55:09.354Z,101499.48
2018-09-26T11:58:13.884Z,101495.86
2018-09-26T12:01:18.404Z,101493.16
2018-09-26T12:04:22.989Z,101494.87
2018-09-26T12:07:27.512Z,101491.95
2018-09-26T12:10:32.075Z,101492.88
2018-09-26T12:13:36.581Z,101493.23
2018-09-26T12:16:41.113Z,101488.20
2018-09-26T12:19:45.979Z,101480.28
2018-09-26T12:22:54.360Z,101471.84
2018-09-26T12:25:58.810Z,101459.64
2018-09-26T12:29:03.294Z,101465.02
2018-09-26T12:32:08.229Z,101456.49
2018-09-26T12:35:12.712Z,101461.15
2018-09-26T12:38:17.158Z,101455.79
2018-09-26T12:41:21.641Z,101448.84
2018-09-26T12:44:26.221Z,101444.36
2018-09-26T12:47:30.778Z,101442.16
2018-09-26T12:50:35.760Z,101441.42
2018-09-26T12:53:40.319Z,101439.89
2018-09-26T12:56:44.760Z,101432.27
2018-09-26T12:59:49.216Z,101426.52
2018-09-26T13:02:53.732Z,101422.12
2018-09-26T13:05:58.455Z,101423.34
2018-09-26T13:09:03.001Z,101419.39
2018-09-26T13:12:07.556Z,101414.44
2018-09-26T13:15:12.179Z,101407.66
2018-09-26T13:18:25.338Z,101399.00
2018-09-26T13:21:30.382Z,101400.27
2018-09-26T13:24:34.957Z,101394.23
2018-09-26T13:27:39.429Z,101393.72
2018-09-26T13:30:44.207Z,101393.86
2018-09-26T13:33:48.671Z,101391.83
2018-09-26T13:36:56.807Z,101384.86
2018-09-26T13:40:01.309Z,101377.18
2018-09-26T13:43:05.866Z,101379.88
2018-09-26T13:46:10.485Z,101373.95
2018-09-26T13:49:15.101Z,101371.34
2018-09-26T13:52:19.672Z,101366.38
2018-09-26T13:55:24.136Z,101364.50
2018-09-26T13:58:28.934Z,101359.45
2018-09-26T14:01:33.542Z,101352.94
2018-09-26T14:04:38.684Z,101351.72
2018-09-26T14:07:43.317Z,101353.24
2018-09-26T14:10:47.934Z,101356.95
2018-09-26T14:13:52.458Z,101350.20
2018-09-26T14:16:56.930Z,101355.72
2018-09-26T14:20:02.059Z,101354.59
2018-09-26T14:23:06.693Z,101354.70
2018-09-26T14:26:11.171Z,101351.36
2018-09-26T14:29:15.772Z,101345.61
2018-09-26T14:32:20.466Z,101345.25
2018-09-26T14:35:25.096Z,101341.83
2018-09-26T14:38:30.215Z,101346.44
2018-09-26T14:41:34.906Z,101338.37
2018-09-26T14:44:40.666Z,101338.49
2018-09-26T14:47:46.718Z,101333.14
2018-09-26T14:50:51.355Z,101325.73
2018-09-26T14:53:56.015Z,101332.00
2018-09-26T14:57:00.653Z,101327.70
2018-09-26T15:00:05.331Z,101327.91
2018-09-26T15:03:09.815Z,101330.25
2018-09-26T15:06:14.292Z,101327.56
2018-09-26T15:09:18.682Z,101318.07
2018-09-26T15:12:23.229Z,101315.72
2018-09-26T15:15:27.814Z,101320.56
2018-09-26T15:18:32.327Z,101321.26
2018-09-26T15:21:37.041Z,101320.42
2018-09-26T15:24:41.483Z,101309.50
2018-09-26T15:27:46.221Z,101313.51
2018-09-26T15:30:50.844Z,101307.73
2018-09-26T15:33:56.520Z,101316.79
2018-09-26T15:37:00.972Z,101310.88
2018-09-26T15:40:05.650Z,101311.44
2018-09-26T15:43:10.310Z,101312.21
2018-09-26T15:46:14.881Z,101305.75
2018-09-26T15:49:19.274Z,101304.71
2018-09-26T15:52:23.989Z,101299.97
2018-09-26T15:55:28.458Z,101297.33
2018-09-26T15:58:33.007Z,101299.79
2018-09-26T16:01:37.576Z,101300.23
2018-09-26T16:04:42.213Z,101296.92
2018-09-26T16:07:46.695Z,101303.20
2018-09-26T16:10:51.198Z,101295.70
2018-09-26T16:13:55.878Z,101294.24
2018-09-26T16:17:00.304Z,101293.41
2018-09-26T16:20:05.015Z,101302.55
2018-09-26T16:23:09.650Z,101300.08
2018-09-26T16:26:20.404Z,101299.56
2018-09-26T16:29:24.853Z,101305.03
2018-09-26T16:32:29.450Z,101301.14
2018-09-26T16:35:34.109Z,101303.55
2018-09-26T16:38:38.563Z,101306.31
2018-09-26T16:41:44.169Z,101304.16
2018-09-26T16:44:48.689Z,101307.36
2018-09-26T16:47:53.224Z,101312.39
2018-09-26T16:50:57.812Z,101304.36
2018-09-26T16:54:03.525Z,101303.83
2018-09-26T16:57:08.113Z,101304.70
2018-09-26T17:00:12.915Z,101309.14
2018-09-26T17:03:17.340Z,101307.73
2018-09-26T17:06:22.185Z,101308.61
2018-09-26T17:09:31.284Z,101308.08
2018-09-26T17:12:35.836Z,101308.64
2018-09-26T17:15:42.861Z,101308.36
2018-09-26T17:18:47.711Z,101311.77
2018-09-26T17:21:52.243Z,101305.35
2018-09-26T17:24:56.719Z,101305.18
2018-09-26T17:28:01.159Z,101314.19
2018-09-26T17:31:05.677Z,101319.61
2018-09-26T17:34:10.240Z,101316.14
2018-09-26T17:37:14.678Z,101314.58
2018-09-26T17:40:19.265Z,101324.23
2018-09-26T17:43:23.738Z,101320.95
2018-09-26T17:46:28.265Z,101334.66
2018-09-26T17:49:32.908Z,101336.16
2018-09-26T17:52:37.356Z,101339.30
2018-09-26T17:55:43.203Z,101344.06
2018-09-26T17:58:47.735Z,101345.92
2018-09-26T18:01:52.380Z,101350.04
2018-09-26T18:04:56.796Z,101354.30
2018-09-26T18:08:01.367Z,101361.17
2018-09-26T18:11:05.910Z,101360.67
2018-09-26T18:14:10.389Z,101361.06
2018-09-26T18:17:14.933Z,101355.38
2018-09-26T18:20:19.536Z,101359.64
2018-09-26T18:23:24.923Z,101363.34
2018-09-26T18:26:29.437Z,101355.44
2018-09-26T18:29:34.753Z,101363.20
2018-09-26T18:32:39.272Z,101362.59
2018-09-26T18:35:43.914Z,101361.73
2018-09-26T18:38:48.443Z,101366.83
2018-09-26T18:41:53.048Z,101373.56
2018-09-26T18:44:57.697Z,101382.13
2018-09-26T18:48:02.203Z,101369.34
2018-09-26T18:51:06.870Z,101373.06
2018-09-26T18:54:11.270Z,101375.39
2018-09-26T18:57:15.897Z,101370.86
2018-09-26T19:00:20.389Z,101370.53
2018-09-26T19:03:24.845Z,101378.22
2018-09-26T19:06:29.583Z,101378.58
2018-09-26T19:09:34.103Z,101386.96
2018-09-26T19:12:38.600Z,101395.84
2018-09-26T19:15:43.279Z,101393.69
2018-09-26T19:18:48.154Z,101393.95
2018-09-26T19:21:52.686Z,101395.08
2018-09-26T19:24:57.222Z,101394.51
2018-09-26T19:28:02.066Z,101384.77
2018-09-26T19:31:06.617Z,101382.12
2018-09-26T19:34:11.468Z,101385.97
2018-09-26T19:37:16.172Z,101388.45
2018-09-26T19:40:20.831Z,101380.05
2018-09-26T19:43:25.330Z,101389.39
2018-09-26T19:46:29.959Z,101390.32
2018-09-26T19:49:34.574Z,101390.36
2018-09-26T19:52:39.207Z,101388.88
2018-09-26T19:55:43.943Z,101396.67
2018-09-26T19:58:48.572Z,101396.42
2018-09-26T20:01:53.575Z,101396.56
2018-09-26T20:04:58.028Z,101399.98
2018-09-26T20:08:02.460Z,101402.36
2018-09-26T20:11:06.833Z,101400.88
2018-09-26T20:14:11.432Z,101402.97
2018-09-26T20:17:15.901Z,101400.78
2018-09-26T20:20:20.474Z,101405.13
2018-09-26T20:23:25.095Z,101399.56
2018-09-26T20:26:29.792Z,101406.80
2018-09-26T20:29:34.809Z,101401.70
2018-09-26T20:32:39.264Z,101401.31
2018-09-26T20:35:44.075Z,101397.53
2018-09-26T20:38:48.802Z,101392.62
2018-09-26T20:41:53.402Z,101392.72
2018-09-26T20:44:58.020Z,101388.72
2018-09-26T20:48:02.745Z,101389.72
2018-09-26T20:51:07.442Z,101391.95
2018-09-26T20:54:12.042Z,101386.58
2018-09-26T20:57:16.539Z,101397.08
2018-09-26T21:00:21.124Z,101402.17
2018-09-26T21:03:25.649Z,101403.39
2018-09-26T21:06:30.271Z,101397.58
2018-09-26T21:09:34.744Z,101396.37
2018-09-26T21:12:39.334Z,101396.53
2018-09-26T21:15:43.887Z,101397.25
2018-09-26T21:18:48.408Z,101398.40
2018-09-26T21:21:52.981Z,101398.73
2018-09-26T21:24:57.469Z,101398.82
2018-09-26T21:28:01.990Z,101401.97
2018-09-26T21:31:06.622Z,101405.91
2018-09-26T21:34:11.467Z,101400.44
2018-09-26T21:37:16.025Z,101401.39
2018-09-26T21:40:20.584Z,101403.58
2018-09-26T21:43:25.289Z,101411.16
2018-09-26T21:46:29.866Z,101407.30
2018-09-26T21:49:34.400Z,101406.50
2018-09-26T21:52:38.992Z,101404.22
2018-09-26T21:55:43.791Z,101402.45
2018-09-26T21:58:48.508Z,101398.17
2018-09-26T22:01:53.313Z,101402.69
2018-09-26T22:04:57.879Z,101399.70
2018-09-26T22:08:02.399Z,101401.04
2018-09-26T22:11:06.988Z,101408.53
2018-09-26T22:14:11.458Z,101401.84
2018-09-26T22:17:16.069Z,101404.30
2018-09-26T22:20:20.756Z,101409.08
2018-09-26T22:23:25.626Z,101406.17
2018-09-26T22:26:30.117Z,101415.95
2018-09-26T22:29:34.641Z,101419.40
2018-09-26T22:32:39.249Z,101416.05
2018-09-26T22:35:44.093Z,101411.66
2018-09-26T22:38:49.748Z,101413.07
2018-09-26T22:41:54.328Z,101403.79
2018-09-26T22:44:58.876Z,101410.03
2018-09-26T22:48:04.193Z,101415.31
2018-09-26T22:51:08.659Z,101416.00
2018-09-26T22:54:14.083Z,101411.62
2018-09-26T22:57:18.659Z,101409.30
2018-09-26T23:00:23.157Z,101407.36
2018-09-26T23:03:28.947Z,101411.09
2018-09-26T23:06:33.535Z,101404.28
2018-09-26T23:09:38.377Z,101401.67
2018-09-26T23:12:42.890Z,101402.53
2018-09-26T23:15:47.454Z,101403.13
2018-09-26T23:18:52.025Z,101408.16
2018-09-26T23:21:56.516Z,101403.70
2018-09-26T23:25:01.226Z,101408.89
2018-09-26T23:28:05.805Z,101416.37
2018-09-26T23:31:10.359Z,101417.59
2018-09-26T23:34:14.810Z,101421.69
2018-09-26T23:37:19.328Z,101421.60
2018-09-26T23:40:23.811Z,101412.86
2018-09-26T23:43:28.248Z,101412.39
2018-09-26T23:46:34.044Z,101417.02
2018-09-26T23:49:38.463Z,101415.80
2018-09-26T23:52:42.894Z,101410.98
2018-09-26T23:55:47.337Z,101408.56
2018-09-26T23:58:51.846Z,101408.12
